Station Historical Data
Daily Summary for March 12, 2017 Units:  Both    English   Metric
« Previous Day
Next Day »
Daily Weekly Monthly Yearly Custom
  High: Low: Average:
Temperature: 22.5 °F /  -5.3 °C 11.9 °F /  -11.2 °C 16.8 °F /  -8.4 °C
Dew Point: 14.5 °F /  -9.7 °C 4.7 °F /  -15.2 °C 8.5 °F /  -13.1 °C
Humidity: 86% 52% 70%
Wind Speed: 11.0mph /  17.7km/h - 2.9mph /  4.7km/h
Wind Gust: 15.0mph /  24.1km/h - -
Wind- - South
Pressure: 30.50 in /  1032.7 hPa 30.37 in /  1028.3 hPa -
Precipitation: 0.00 in /  0 mm    
Historical Graphs
 
 
Tabular Data for March 12, 2017
Time Temperature Dew Point Pressure Wind Wind Speed Wind Gust Humidity Rainfall Rate (Hourly)
00:04 17.9 °F /  -7.8 °C 14.4 °F /  -9.8 °C 30.37in /  1028.3hPa WNW 1.0mph /  1.6km/h 5.0mph /  8km/h 86% 0.00in /  0mm
00:09 17.9 °F /  -7.8 °C 14.4 °F /  -9.8 °C 30.37in /  1028.3hPa WNW 1.0mph /  1.6km/h 5.0mph /  8km/h 86% 0.00in /  0mm
00:14 17.9 °F /  -7.8 °C 14.4 °F /  -9.8 °C 30.37in /  1028.3hPa WNW 1.0mph /  1.6km/h 4.0mph /  6.4km/h 86% 0.00in /  0mm
00:19 17.8 °F /  -7.9 °C 14.3 °F /  -9.8 °C 30.37in /  1028.3hPa NW 2.0mph /  3.2km/h 4.0mph /  6.4km/h 86% 0.00in /  0mm
00:24 17.7 °F /  -7.9 °C 14.2 °F /  -9.9 °C 30.37in /  1028.3hPa NW 1.0mph /  1.6km/h 4.0mph /  6.4km/h 86% 0.00in /  0mm
00:29 17.7 °F /  -7.9 °C 14.2 °F /  -9.9 °C 30.37in /  1028.3hPa NW 1.0mph /  1.6km/h 4.0mph /  6.4km/h 86% 0.00in /  0mm
00:34 17.7 °F /  -7.9 °C 14.2 °F /  -9.9 °C 30.37in /  1028.3hPa Calm   2.0mph /  3.2km/h 86% 0.00in /  0mm
00:39 17.6 °F /  -8 °C 14.1 °F /  -9.9 °C 30.37in /  1028.3hPa NNW 1.0mph /  1.6km/h 3.0mph /  4.8km/h 86% 0.00in /  0mm
00:44 17.1 °F /  -8.3 °C 13.6 °F /  -10.2 °C 30.37in /  1028.3hPa North 2.0mph /  3.2km/h 3.0mph /  4.8km/h 86% 0.00in /  0mm
00:49 16.6 °F /  -8.6 °C 13.1 °F /  -10.5 °C 30.37in /  1028.3hPa NNE 2.0mph /  3.2km/h 6.0mph /  9.7km/h 86% 0.00in /  0mm
00:54 16.2 °F /  -8.8 °C 12.7 °F /  -10.7 °C 30.37in /  1028.3hPa NNE 1.0mph /  1.6km/h 4.0mph /  6.4km/h 86% 0.00in /  0mm
00:59 15.9 °F /  -8.9 °C 12.5 °F /  -10.8 °C 30.37in /  1028.3hPa NE 2.0mph /  3.2km/h 4.0mph /  6.4km/h 86% 0.00in /  0mm
01:05 15.7 °F /  -9.1 °C 12.3 °F /  -10.9 °C 30.37in /  1028.3hPa NE 2.0mph /  3.2km/h 6.0mph /  9.7km/h 86% 0.00in /  0mm
01:10 15.5 °F /  -9.2 °C 12.1 °F /  -11.1 °C 30.38in /  1028.7hPa NNE 2.0mph /  3.2km/h 6.0mph /  9.7km/h 86% 0.00in /  0mm
01:15 15.3 °F /  -9.3 °C 11.9 °F /  -11.2 °C 30.38in /  1028.7hPa NNE 2.0mph /  3.2km/h 4.0mph /  6.4km/h 86% 0.00in /  0mm
01:20 15.3 °F /  -9.3 °C 11.9 °F /  -11.2 °C 30.37in /  1028.3hPa NE 3.0mph /  4.8km/h 4.0mph /  6.4km/h 86% 0.00in /  0mm
01:25 15.1 °F /  -9.4 °C 11.7 °F /  -11.3 °C 30.37in /  1028.3hPa NE 2.0mph /  3.2km/h 5.0mph /  8km/h 86% 0.00in /  0mm
01:30 15.1 °F /  -9.4 °C 11.7 °F /  -11.3 °C 30.38in /  1028.7hPa NE 2.0mph /  3.2km/h 4.0mph /  6.4km/h 86% 0.00in /  0mm
01:35 15.0 °F /  -9.4 °C 11.6 °F /  -11.3 °C 30.38in /  1028.7hPa NE 2.0mph /  3.2km/h 7.0mph /  11.3km/h 86% 0.00in /  0mm
01:40 14.7 °F /  -9.6 °C 11.0 °F /  -11.7 °C 30.38in /  1028.7hPa NE 2.0mph /  3.2km/h 7.0mph /  11.3km/h 85% 0.00in /  0mm
01:45 14.6 °F /  -9.7 °C 10.9 °F /  -11.7 °C 30.37in /  1028.3hPa NE 2.0mph /  3.2km/h 5.0mph /  8km/h 85% 0.00in /  0mm
01:50 14.4 °F /  -9.8 °C 10.7 °F /  -11.8 °C 30.38in /  1028.7hPa NE 2.0mph /  3.2km/h 5.0mph /  8km/h 85% 0.00in /  0mm
01:55 14.3 °F /  -9.8 °C 10.6 °F /  -11.9 °C 30.38in /  1028.7hPa NE 3.0mph /  4.8km/h 5.0mph /  8km/h 85% 0.00in /  0mm
03:00 14.2 °F /  -9.9 °C 10.5 °F /  -11.9 °C 30.38in /  1028.7hPa NE 3.0mph /  4.8km/h 5.0mph /  8km/h 85% 0.00in /  0mm
03:05 14.1 °F /  -9.9 °C 10.4 °F /  -12 °C 30.38in /  1028.7hPa NE 2.0mph /  3.2km/h 5.0mph /  8km/h 85% 0.00in /  0mm
03:10 14.0 °F /  -10 °C 10.1 °F /  -12.2 °C 30.38in /  1028.7hPa NE 2.0mph /  3.2km/h 5.0mph /  8km/h 84% 0.00in /  0mm
03:15 13.9 °F /  -10.1 °C 10.0 °F /  -12.2 °C 30.38in /  1028.7hPa NE 2.0mph /  3.2km/h 7.0mph /  11.3km/h 84% 0.00in /  0mm
03:20 13.8 °F /  -10.1 °C 9.9 °F /  -12.3 °C 30.38in /  1028.7hPa ENE 4.0mph /  6.4km/h 7.0mph /  11.3km/h 84% 0.00in /  0mm
03:25 13.8 °F /  -10.1 °C 9.9 °F /  -12.3 °C 30.38in /  1028.7hPa NE 5.0mph /  8km/h 7.0mph /  11.3km/h 84% 0.00in /  0mm
03:30 13.8 °F /  -10.1 °C 9.9 °F /  -12.3 °C 30.38in /  1028.7hPa NE 3.0mph /  4.8km/h 5.0mph /  8km/h 84% 0.00in /  0mm
03:35 13.8 °F /  -10.1 °C 9.9 °F /  -12.3 °C 30.38in /  1028.7hPa NE 2.0mph /  3.2km/h 5.0mph /  8km/h 84% 0.00in /  0mm
03:40 13.8 °F /  -10.1 °C 9.9 °F /  -12.3 °C 30.38in /  1028.7hPa NE 2.0mph /  3.2km/h 5.0mph /  8km/h 84% 0.00in /  0mm
03:45 13.6 °F /  -10.2 °C 9.7 °F /  -12.4 °C 30.38in /  1028.7hPa ENE 2.0mph /  3.2km/h 5.0mph /  8km/h 84% 0.00in /  0mm
03:50 13.4 °F /  -10.3 °C 9.5 °F /  -12.5 °C 30.38in /  1028.7hPa ENE 3.0mph /  4.8km/h 5.0mph /  8km/h 84% 0.00in /  0mm
03:55 13.3 °F /  -10.4 °C 9.1 °F /  -12.7 °C 30.37in /  1028.3hPa NE 3.0mph /  4.8km/h 5.0mph /  8km/h 83% 0.00in /  0mm
04:00 13.3 °F /  -10.4 °C 9.1 °F /  -12.7 °C 30.38in /  1028.7hPa NE 1.0mph /  1.6km/h 5.0mph /  8km/h 83% 0.00in /  0mm
04:05 13.2 °F /  -10.4 °C 9.0 °F /  -12.8 °C 30.38in /  1028.7hPa NE 2.0mph /  3.2km/h 5.0mph /  8km/h 83% 0.00in /  0mm
04:10 13.2 °F /  -10.4 °C 9.0 °F /  -12.8 °C 30.38in /  1028.7hPa NE 2.0mph /  3.2km/h 5.0mph /  8km/h 83% 0.00in /  0mm
04:15 13.2 °F /  -10.4 °C 9.0 °F /  -12.8 °C 30.38in /  1028.7hPa NE 2.0mph /  3.2km/h 5.0mph /  8km/h 83% 0.00in /  0mm
04:20 13.1 °F /  -10.5 °C 8.9 °F /  -12.8 °C 30.38in /  1028.7hPa NE 3.0mph /  4.8km/h 4.0mph /  6.4km/h 83% 0.00in /  0mm
04:25 13.0 °F /  -10.6 °C 8.8 °F /  -12.9 °C 30.39in /  1029hPa NE 2.0mph /  3.2km/h 5.0mph /  8km/h 83% 0.00in /  0mm
04:30 13.0 °F /  -10.6 °C 8.8 °F /  -12.9 °C 30.39in /  1029hPa NNE 1.0mph /  1.6km/h 5.0mph /  8km/h 83% 0.00in /  0mm
04:35 13.0 °F /  -10.6 °C 8.8 °F /  -12.9 °C 30.39in /  1029hPa NE 3.0mph /  4.8km/h 6.0mph /  9.7km/h 83% 0.00in /  0mm
04:40 13.0 °F /  -10.6 °C 8.8 °F /  -12.9 °C 30.39in /  1029hPa NE 2.0mph /  3.2km/h 6.0mph /  9.7km/h 83% 0.00in /  0mm
04:45 13.0 °F /  -10.6 °C 8.8 °F /  -12.9 °C 30.39in /  1029hPa NNE 2.0mph /  3.2km/h 5.0mph /  8km/h 83% 0.00in /  0mm
04:50 13.0 °F /  -10.6 °C 8.8 °F /  -12.9 °C 30.39in /  1029hPa NE 2.0mph /  3.2km/h 7.0mph /  11.3km/h 83% 0.00in /  0mm
04:55 13.0 °F /  -10.6 °C 8.8 °F /  -12.9 °C 30.39in /  1029hPa NE 2.0mph /  3.2km/h 7.0mph /  11.3km/h 83% 0.00in /  0mm
05:00 12.9 °F /  -10.6 °C 8.7 °F /  -12.9 °C 30.39in /  1029hPa NNE 2.0mph /  3.2km/h 4.0mph /  6.4km/h 83% 0.00in /  0mm
05:05 12.8 °F /  -10.7 °C 8.6 °F /  -13 °C 30.39in /  1029hPa NNE 2.0mph /  3.2km/h 6.0mph /  9.7km/h 83% 0.00in /  0mm
05:10 12.8 °F /  -10.7 °C 8.6 °F /  -13 °C 30.39in /  1029hPa NE 3.0mph /  4.8km/h 6.0mph /  9.7km/h 83% 0.00in /  0mm
05:15 12.8 °F /  -10.7 °C 8.6 °F /  -13 °C 30.39in /  1029hPa NE 1.0mph /  1.6km/h 5.0mph /  8km/h 83% 0.00in /  0mm
05:20 12.9 °F /  -10.6 °C 8.7 °F /  -12.9 °C 30.39in /  1029hPa NE 2.0mph /  3.2km/h 5.0mph /  8km/h 83% 0.00in /  0mm
05:25 12.8 °F /  -10.7 °C 8.3 °F /  -13.2 °C 30.39in /  1029hPa NE 1.0mph /  1.6km/h 6.0mph /  9.7km/h 82% 0.00in /  0mm
05:30 12.8 °F /  -10.7 °C 8.3 °F /  -13.2 °C 30.39in /  1029hPa NE 2.0mph /  3.2km/h 4.0mph /  6.4km/h 82% 0.00in /  0mm
05:35 12.8 °F /  -10.7 °C 8.3 °F /  -13.2 °C 30.40in /  1029.3hPa NE 1.0mph /  1.6km/h 4.0mph /  6.4km/h 82% 0.00in /  0mm
05:40 12.8 °F /  -10.7 °C 8.6 °F /  -13 °C 30.40in /  1029.3hPa NE 3.0mph /  4.8km/h 4.0mph /  6.4km/h 83% 0.00in /  0mm
05:45 12.8 °F /  -10.7 °C 8.6 °F /  -13 °C 30.40in /  1029.3hPa NE 4.0mph /  6.4km/h 5.0mph /  8km/h 83% 0.00in /  0mm
05:50 12.8 °F /  -10.7 °C 8.3 °F /  -13.2 °C 30.40in /  1029.3hPa NE 1.0mph /  1.6km/h 5.0mph /  8km/h 82% 0.00in /  0mm
05:55 12.8 °F /  -10.7 °C 8.3 °F /  -13.2 °C 30.40in /  1029.3hPa NE 2.0mph /  3.2km/h 5.0mph /  8km/h 82% 0.00in /  0mm
06:00 12.7 °F /  -10.7 °C 8.2 °F /  -13.2 °C 30.40in /  1029.3hPa NE 2.0mph /  3.2km/h 5.0mph /  8km/h 82% 0.00in /  0mm
06:05 12.7 °F /  -10.7 °C 8.2 °F /  -13.2 °C 30.41in /  1029.7hPa NNE 1.0mph /  1.6km/h 4.0mph /  6.4km/h 82% 0.00in /  0mm
06:10 12.7 °F /  -10.7 °C 8.2 °F /  -13.2 °C 30.41in /  1029.7hPa NNE 1.0mph /  1.6km/h 4.0mph /  6.4km/h 82% 0.00in /  0mm
06:15 12.6 °F /  -10.8 °C 8.1 °F /  -13.3 °C 30.41in /  1029.7hPa NNE 2.0mph /  3.2km/h 4.0mph /  6.4km/h 82% 0.00in /  0mm
06:20 12.6 °F /  -10.8 °C 8.1 °F /  -13.3 °C 30.41in /  1029.7hPa ENE 5.0mph /  8km/h 5.0mph /  8km/h 82% 0.00in /  0mm
06:24 12.6 °F /  -10.8 °C 8.1 °F /  -13.3 °C 30.41in /  1029.7hPa NE 2.0mph /  3.2km/h 7.0mph /  11.3km/h 82% 0.00in /  0mm
06:30 12.5 °F /  -10.8 °C 8.0 °F /  -13.3 °C 30.41in /  1029.7hPa NE 1.0mph /  1.6km/h 2.0mph /  3.2km/h 82% 0.00in /  0mm
06:35 12.5 °F /  -10.8 °C 8.0 °F /  -13.3 °C 30.41in /  1029.7hPa NE 1.0mph /  1.6km/h 4.0mph /  6.4km/h 82% 0.00in /  0mm
06:40 12.5 °F /  -10.8 °C 8.0 °F /  -13.3 °C 30.41in /  1029.7hPa NNE 1.0mph /  1.6km/h 6.0mph /  9.7km/h 82% 0.00in /  0mm
06:45 12.5 °F /  -10.8 °C 8.0 °F /  -13.3 °C 30.41in /  1029.7hPa NE 2.0mph /  3.2km/h 4.0mph /  6.4km/h 82% 0.00in /  0mm
06:50 12.5 °F /  -10.8 °C 8.0 °F /  -13.3 °C 30.41in /  1029.7hPa NE 1.0mph /  1.6km/h 4.0mph /  6.4km/h 82% 0.00in /  0mm
06:54 12.4 °F /  -10.9 °C 8.0 °F /  -13.3 °C 30.41in /  1029.7hPa NE 2.0mph /  3.2km/h 4.0mph /  6.4km/h 82% 0.00in /  0mm
07:00 12.4 °F /  -10.9 °C 8.0 °F /  -13.3 °C 30.41in /  1029.7hPa NNE 2.0mph /  3.2km/h 4.0mph /  6.4km/h 82% 0.00in /  0mm
07:05 12.4 °F /  -10.9 °C 7.7 °F /  -13.5 °C 30.41in /  1029.7hPa NE 2.0mph /  3.2km/h 4.0mph /  6.4km/h 81% 0.00in /  0mm
07:10 12.4 °F /  -10.9 °C 7.7 °F /  -13.5 °C 30.42in /  1030hPa NNE 1.0mph /  1.6km/h 4.0mph /  6.4km/h 81% 0.00in /  0mm
07:15 12.4 °F /  -10.9 °C 7.7 °F /  -13.5 °C 30.41in /  1029.7hPa North 2.0mph /  3.2km/h 3.0mph /  4.8km/h 81% 0.00in /  0mm
07:20 12.3 °F /  -10.9 °C 7.9 °F /  -13.4 °C 30.41in /  1029.7hPa NE 2.0mph /  3.2km/h 3.0mph /  4.8km/h 82% 0.00in /  0mm
07:25 12.2 °F /  -11 °C 7.8 °F /  -13.4 °C 30.41in /  1029.7hPa NE 4.0mph /  6.4km/h 7.0mph /  11.3km/h 82% 0.00in /  0mm
07:30 12.2 °F /  -11 °C 7.8 °F /  -13.4 °C 30.41in /  1029.7hPa NE 3.0mph /  4.8km/h 5.0mph /  8km/h 82% 0.00in /  0mm
07:34 12.0 °F /  -11.1 °C 7.6 °F /  -13.6 °C 30.41in /  1029.7hPa NE 4.0mph /  6.4km/h 7.0mph /  11.3km/h 82% 0.00in /  0mm
07:40 11.9 °F /  -11.2 °C 7.5 °F /  -13.6 °C 30.42in /  1030hPa Calm   5.0mph /  8km/h 82% 0.00in /  0mm
07:45 12.0 °F /  -11.1 °C 7.6 °F /  -13.6 °C 30.42in /  1030hPa NNE 2.0mph /  3.2km/h 4.0mph /  6.4km/h 82% 0.00in /  0mm
07:50 11.9 °F /  -11.2 °C 7.5 °F /  -13.6 °C 30.42in /  1030hPa NE 2.0mph /  3.2km/h 6.0mph /  9.7km/h 82% 0.00in /  0mm
07:55 11.9 °F /  -11.2 °C 7.5 °F /  -13.6 °C 30.42in /  1030hPa NNE 1.0mph /  1.6km/h 5.0mph /  8km/h 82% 0.00in /  0mm
08:00 11.9 °F /  -11.2 °C 7.5 °F /  -13.6 °C 30.42in /  1030hPa NE 2.0mph /  3.2km/h 5.0mph /  8km/h 82% 0.00in /  0mm
08:04 12.0 °F /  -11.1 °C 7.6 °F /  -13.6 °C 30.42in /  1030hPa NNE 2.0mph /  3.2km/h 4.0mph /  6.4km/h 82% 0.00in /  0mm
08:10 12.1 °F /  -11.1 °C 7.7 °F /  -13.5 °C 30.42in /  1030hPa North 1.0mph /  1.6km/h 3.0mph /  4.8km/h 82% 0.00in /  0mm
08:15 12.0 °F /  -11.1 °C 7.3 °F /  -13.7 °C 30.42in /  1030hPa North 2.0mph /  3.2km/h 4.0mph /  6.4km/h 81% 0.00in /  0mm
08:20 12.0 °F /  -11.1 °C 7.0 °F /  -13.9 °C 30.43in /  1030.4hPa NNW 2.0mph /  3.2km/h 6.0mph /  9.7km/h 80% 0.00in /  0mm
08:25 11.9 °F /  -11.2 °C 6.6 °F /  -14.1 °C 30.43in /  1030.4hPa North 4.0mph /  6.4km/h 6.0mph /  9.7km/h 79% 0.00in /  0mm
08:30 11.9 °F /  -11.2 °C 6.4 °F /  -14.2 °C 30.43in /  1030.4hPa North 2.0mph /  3.2km/h 4.0mph /  6.4km/h 78% 0.00in /  0mm
08:34 12.0 °F /  -11.1 °C 6.5 °F /  -14.2 °C 30.43in /  1030.4hPa North 2.0mph /  3.2km/h 5.0mph /  8km/h 78% 0.00in /  0mm
08:40 12.1 °F /  -11.1 °C 6.3 °F /  -14.3 °C 30.43in /  1030.4hPa North 2.0mph /  3.2km/h 5.0mph /  8km/h 77% 0.00in /  0mm
08:44 12.3 °F /  -10.9 °C 6.5 °F /  -14.2 °C 30.43in /  1030.4hPa North 1.0mph /  1.6km/h 3.0mph /  4.8km/h 77% 0.00in /  0mm
08:49 12.6 °F /  -10.8 °C 6.5 °F /  -14.2 °C 30.43in /  1030.4hPa NE 3.0mph /  4.8km/h 3.0mph /  4.8km/h 76% 0.00in /  0mm
08:54 12.8 °F /  -10.7 °C 6.7 °F /  -14.1 °C 30.44in /  1030.7hPa NNE 2.0mph /  3.2km/h 4.0mph /  6.4km/h 76% 0.00in /  0mm
08:59 12.8 °F /  -10.7 °C 6.4 °F /  -14.2 °C 30.44in /  1030.7hPa North 1.0mph /  1.6km/h 5.0mph /  8km/h 75% 0.00in /  0mm
09:04 12.7 °F /  -10.7 °C 6.3 °F /  -14.3 °C 30.45in /  1031hPa North 1.0mph /  1.6km/h 5.0mph /  8km/h 75% 0.00in /  0mm
09:09 12.8 °F /  -10.7 °C 6.1 °F /  -14.4 °C 30.45in /  1031hPa North 2.0mph /  3.2km/h 5.0mph /  8km/h 74% 0.00in /  0mm
09:14 12.8 °F /  -10.7 °C 5.8 °F /  -14.6 °C 30.45in /  1031hPa North 2.0mph /  3.2km/h 5.0mph /  8km/h 73% 0.00in /  0mm
09:20 12.9 °F /  -10.6 °C 5.6 °F /  -14.7 °C 30.45in /  1031hPa North 2.0mph /  3.2km/h 6.0mph /  9.7km/h 72% 0.00in /  0mm
09:25 13.2 °F /  -10.4 °C 5.9 °F /  -14.5 °C 30.45in /  1031hPa North 2.0mph /  3.2km/h 4.0mph /  6.4km/h 72% 0.00in /  0mm
09:30 13.4 °F /  -10.3 °C 5.7 °F /  -14.6 °C 30.45in /  1031hPa NNE 3.0mph /  4.8km/h 5.0mph /  8km/h 71% 0.00in /  0mm
09:35 13.5 °F /  -10.3 °C 5.5 °F /  -14.7 °C 30.45in /  1031hPa NNW 1.0mph /  1.6km/h 5.0mph /  8km/h 70% 0.00in /  0mm
09:40 13.5 °F /  -10.3 °C 5.2 °F /  -14.9 °C 30.45in /  1031hPa North 1.0mph /  1.6km/h 3.0mph /  4.8km/h 69% 0.00in /  0mm
09:44 13.6 °F /  -10.2 °C 5.3 °F /  -14.8 °C 30.45in /  1031hPa North 1.0mph /  1.6km/h 3.0mph /  4.8km/h 69% 0.00in /  0mm
09:50 14.2 °F /  -9.9 °C 5.6 °F /  -14.7 °C 30.45in /  1031hPa NNW 2.0mph /  3.2km/h 4.0mph /  6.4km/h 68% 0.00in /  0mm
09:55 14.6 °F /  -9.7 °C 5.3 °F /  -14.8 °C 30.45in /  1031hPa North 1.0mph /  1.6km/h 4.0mph /  6.4km/h 66% 0.00in /  0mm
09:59 15.0 °F /  -9.4 °C 5.7 °F /  -14.6 °C 30.46in /  1031.4hPa North 3.0mph /  4.8km/h 4.0mph /  6.4km/h 66% 0.00in /  0mm
10:04 15.0 °F /  -9.4 °C 5.3 °F /  -14.8 °C 30.46in /  1031.4hPa North 3.0mph /  4.8km/h 3.0mph /  4.8km/h 65% 0.00in /  0mm
10:09 14.7 °F /  -9.6 °C 4.7 °F /  -15.2 °C 30.46in /  1031.4hPa Calm   3.0mph /  4.8km/h 64% 0.00in /  0mm
10:15 15.1 °F /  -9.4 °C 5.4 °F /  -14.8 °C 30.45in /  1031hPa NNE 4.0mph /  6.4km/h 4.0mph /  6.4km/h 65% 0.00in /  0mm
10:19 14.9 °F /  -9.5 °C 4.9 °F /  -15.1 °C 30.46in /  1031.4hPa North 2.0mph /  3.2km/h 4.0mph /  6.4km/h 64% 0.00in /  0mm
10:25 15.3 °F /  -9.3 °C 5.3 °F /  -14.8 °C 30.46in /  1031.4hPa NNW 2.0mph /  3.2km/h 4.0mph /  6.4km/h 64% 0.00in /  0mm
10:30 15.1 °F /  -9.4 °C 4.8 °F /  -15.1 °C 30.45in /  1031hPa NNW 2.0mph /  3.2km/h 4.0mph /  6.4km/h 63% 0.00in /  0mm
10:35 15.0 °F /  -9.4 °C 4.7 °F /  -15.2 °C 30.46in /  1031.4hPa NW 1.0mph /  1.6km/h 4.0mph /  6.4km/h 63% 0.00in /  0mm
10:40 15.7 °F /  -9.1 °C 5.3 °F /  -14.8 °C 30.46in /  1031.4hPa NNE 2.0mph /  3.2km/h 3.0mph /  4.8km/h 63% 0.01in /  0.25mm
10:45 16.0 °F /  -8.9 °C 5.3 °F /  -14.8 °C 30.46in /  1031.4hPa North 2.0mph /  3.2km/h 4.0mph /  6.4km/h 62% 0.01in /  0.25mm
10:50 16.3 °F /  -8.7 °C 5.5 °F /  -14.7 °C 30.46in /  1031.4hPa NE 2.0mph /  3.2km/h 4.0mph /  6.4km/h 62% 0.01in /  0.25mm
13:34 20.5 °F /  -6.4 °C 7.7 °F /  -13.5 °C 30.46in /  1031.4hPa WNW 4.0mph /  6.4km/h 13.0mph /  20.9km/h 57% 0.00in /  0mm
13:39 20.2 °F /  -6.6 °C 6.2 °F /  -14.3 °C 30.46in /  1031.4hPa WNW 5.0mph /  8km/h 13.0mph /  20.9km/h 54% 0.00in /  0mm
13:44 20.8 °F /  -6.2 °C 7.6 °F /  -13.6 °C 30.46in /  1031.4hPa WNW 5.0mph /  8km/h 12.0mph /  19.3km/h 56% 0.00in /  0mm
13:49 21.4 °F /  -5.9 °C 7.7 °F /  -13.5 °C 30.45in /  1031hPa WSW 4.0mph /  6.4km/h 10.0mph /  16.1km/h 55% 0.00in /  0mm
13:55 20.4 °F /  -6.4 °C 6.4 °F /  -14.2 °C 30.45in /  1031hPa NW 2.0mph /  3.2km/h 11.0mph /  17.7km/h 54% 0.00in /  0mm
14:00 20.7 °F /  -6.3 °C 6.7 °F /  -14.1 °C 30.45in /  1031hPa WNW 6.0mph /  9.7km/h 11.0mph /  17.7km/h 54% 0.00in /  0mm
14:05 20.4 °F /  -6.4 °C 6.4 °F /  -14.2 °C 30.45in /  1031hPa NW 9.0mph /  14.5km/h 11.0mph /  17.7km/h 54% 0.00in /  0mm
14:10 20.8 °F /  -6.2 °C 6.7 °F /  -14.1 °C 30.45in /  1031hPa WNW 9.0mph /  14.5km/h 11.0mph /  17.7km/h 54% 0.00in /  0mm
14:14 20.7 °F /  -6.3 °C 6.7 °F /  -14.1 °C 30.45in /  1031hPa WNW 5.0mph /  8km/h 11.0mph /  17.7km/h 54% 0.00in /  0mm
14:19 22.2 °F /  -5.4 °C 8.5 °F /  -13.1 °C 30.45in /  1031hPa WNW 5.0mph /  8km/h 10.0mph /  16.1km/h 55% 0.00in /  0mm
14:25 21.9 °F /  -5.6 °C 8.2 °F /  -13.2 °C 30.45in /  1031hPa WNW 4.0mph /  6.4km/h 11.0mph /  17.7km/h 55% 0.00in /  0mm
14:29 22.5 °F /  -5.3 °C 8.7 °F /  -12.9 °C 30.45in /  1031hPa West 3.0mph /  4.8km/h 8.0mph /  12.9km/h 55% 0.00in /  0mm
14:34 22.3 °F /  -5.4 °C 7.3 °F /  -13.7 °C 30.45in /  1031hPa WNW 6.0mph /  9.7km/h 12.0mph /  19.3km/h 52% 0.00in /  0mm
14:39 21.2 °F /  -6 °C 6.3 °F /  -14.3 °C 30.45in /  1031hPa North 5.0mph /  8km/h 11.0mph /  17.7km/h 52% 0.00in /  0mm
14:44 20.9 °F /  -6.2 °C 6.8 °F /  -14 °C 30.44in /  1030.7hPa WNW 3.0mph /  4.8km/h 8.0mph /  12.9km/h 54% 0.00in /  0mm
14:49 20.9 °F /  -6.2 °C 7.6 °F /  -13.6 °C 30.44in /  1030.7hPa WNW 5.0mph /  8km/h 10.0mph /  16.1km/h 56% 0.00in /  0mm
14:54 21.6 °F /  -5.8 °C 7.5 °F /  -13.6 °C 30.44in /  1030.7hPa West 5.0mph /  8km/h 11.0mph /  17.7km/h 54% 0.00in /  0mm
14:59 21.1 °F /  -6.1 °C 8.6 °F /  -13 °C 30.44in /  1030.7hPa West 5.0mph /  8km/h 11.0mph /  17.7km/h 58% 0.00in /  0mm
15:04 21.5 °F /  -5.8 °C 9.7 °F /  -12.4 °C 30.44in /  1030.7hPa WSW 5.0mph /  8km/h 10.0mph /  16.1km/h 60% 0.00in /  0mm
15:10 21.1 °F /  -6.1 °C 9.7 °F /  -12.4 °C 30.44in /  1030.7hPa West 7.0mph /  11.3km/h 10.0mph /  16.1km/h 61% 0.00in /  0mm
15:14 22.3 °F /  -5.4 °C 11.2 °F /  -11.6 °C 30.44in /  1030.7hPa SW 5.0mph /  8km/h 10.0mph /  16.1km/h 62% 0.00in /  0mm
15:20 21.3 °F /  -5.9 °C 9.6 °F /  -12.4 °C 30.43in /  1030.4hPa WSW 5.0mph /  8km/h 11.0mph /  17.7km/h 60% 0.00in /  0mm
15:24 21.9 °F /  -5.6 °C 11.2 °F /  -11.6 °C 30.44in /  1030.7hPa WSW 6.0mph /  9.7km/h 12.0mph /  19.3km/h 63% 0.00in /  0mm
15:29 21.7 °F /  -5.7 °C 11.4 °F /  -11.4 °C 30.44in /  1030.7hPa WSW 6.0mph /  9.7km/h 12.0mph /  19.3km/h 64% 0.00in /  0mm
15:35 21.6 °F /  -5.8 °C 12.0 °F /  -11.1 °C 30.44in /  1030.7hPa WSW 6.0mph /  9.7km/h 11.0mph /  17.7km/h 66% 0.00in /  0mm
15:39 21.8 °F /  -5.7 °C 11.5 °F /  -11.4 °C 30.44in /  1030.7hPa West 8.0mph /  12.9km/h 14.0mph /  22.5km/h 64% 0.00in /  0mm
15:44 20.8 °F /  -6.2 °C 11.9 °F /  -11.2 °C 30.43in /  1030.4hPa WSW 8.0mph /  12.9km/h 14.0mph /  22.5km/h 68% 0.00in /  0mm
15:50 20.7 °F /  -6.3 °C 12.5 °F /  -10.8 °C 30.44in /  1030.7hPa West 5.0mph /  8km/h 10.0mph /  16.1km/h 70% 0.00in /  0mm
15:54 20.7 °F /  -6.3 °C 12.8 °F /  -10.7 °C 30.44in /  1030.7hPa SW 8.0mph /  12.9km/h 11.0mph /  17.7km/h 71% 0.00in /  0mm
15:59 20.8 °F /  -6.2 °C 13.2 °F /  -10.4 °C 30.44in /  1030.7hPa WNW 7.0mph /  11.3km/h 13.0mph /  20.9km/h 72% 0.00in /  0mm
16:05 20.6 °F /  -6.3 °C 12.7 °F /  -10.7 °C 30.44in /  1030.7hPa WNW 4.0mph /  6.4km/h 15.0mph /  24.1km/h 71% 0.00in /  0mm
16:10 21.2 °F /  -6 °C 13.3 °F /  -10.4 °C 30.44in /  1030.7hPa WSW 8.0mph /  12.9km/h 15.0mph /  24.1km/h 71% 0.00in /  0mm
16:14 20.9 °F /  -6.2 °C 13.3 °F /  -10.4 °C 30.44in /  1030.7hPa WSW 2.0mph /  3.2km/h 14.0mph /  22.5km/h 72% 0.00in /  0mm
16:20 20.4 °F /  -6.4 °C 12.5 °F /  -10.8 °C 30.44in /  1030.7hPa West 8.0mph /  12.9km/h 11.0mph /  17.7km/h 71% 0.00in /  0mm
16:25 20.4 °F /  -6.4 °C 12.5 °F /  -10.8 °C 30.44in /  1030.7hPa WSW 4.0mph /  6.4km/h 13.0mph /  20.9km/h 71% 0.00in /  0mm
16:30 20.9 °F /  -6.2 °C 12.6 °F /  -10.8 °C 30.44in /  1030.7hPa WSW 6.0mph /  9.7km/h 13.0mph /  20.9km/h 70% 0.00in /  0mm
16:35 20.9 °F /  -6.2 °C 13.0 °F /  -10.6 °C 30.44in /  1030.7hPa WSW 6.0mph /  9.7km/h 14.0mph /  22.5km/h 71% 0.00in /  0mm
16:40 21.1 °F /  -6.1 °C 13.2 °F /  -10.4 °C 30.44in /  1030.7hPa WSW 7.0mph /  11.3km/h 14.0mph /  22.5km/h 71% 0.00in /  0mm
16:44 20.7 °F /  -6.3 °C 12.8 °F /  -10.7 °C 30.44in /  1030.7hPa WSW 6.0mph /  9.7km/h 11.0mph /  17.7km/h 71% 0.00in /  0mm
16:49 20.9 °F /  -6.2 °C 13.3 °F /  -10.4 °C 30.44in /  1030.7hPa WSW 5.0mph /  8km/h 14.0mph /  22.5km/h 72% 0.00in /  0mm
16:54 21.0 °F /  -6.1 °C 13.1 °F /  -10.5 °C 30.44in /  1030.7hPa WSW 11.0mph /  17.7km/h 14.0mph /  22.5km/h 71% 0.00in /  0mm
17:00 21.3 °F /  -5.9 °C 13.0 °F /  -10.6 °C 30.44in /  1030.7hPa West 7.0mph /  11.3km/h 12.0mph /  19.3km/h 70% 0.00in /  0mm
17:04 21.7 °F /  -5.7 °C 14.1 °F /  -9.9 °C 30.44in /  1030.7hPa West 4.0mph /  6.4km/h 10.0mph /  16.1km/h 72% 0.00in /  0mm
17:09 21.5 °F /  -5.8 °C 13.5 °F /  -10.3 °C 30.44in /  1030.7hPa West 2.0mph /  3.2km/h 9.0mph /  14.5km/h 71% 0.00in /  0mm
17:14 22.1 °F /  -5.5 °C 14.4 °F /  -9.8 °C 30.43in /  1030.4hPa WSW 7.0mph /  11.3km/h 8.0mph /  12.9km/h 72% 0.00in /  0mm
17:19 22.5 °F /  -5.3 °C 14.5 °F /  -9.7 °C 30.43in /  1030.4hPa SW 8.0mph /  12.9km/h 10.0mph /  16.1km/h 71% 0.00in /  0mm
17:24 22.1 °F /  -5.5 °C 13.8 °F /  -10.1 °C 30.43in /  1030.4hPa WSW 4.0mph /  6.4km/h 9.0mph /  14.5km/h 70% 0.00in /  0mm
17:30 22.3 °F /  -5.4 °C 14.0 °F /  -10 °C 30.44in /  1030.7hPa WNW 5.0mph /  8km/h 6.0mph /  9.7km/h 70% 0.00in /  0mm
17:34 21.8 °F /  -5.7 °C 12.9 °F /  -10.6 °C 30.44in /  1030.7hPa West 4.0mph /  6.4km/h 14.0mph /  22.5km/h 68% 0.00in /  0mm
17:39 21.7 °F /  -5.7 °C 12.1 °F /  -11.1 °C 30.44in /  1030.7hPa West 4.0mph /  6.4km/h 14.0mph /  22.5km/h 66% 0.00in /  0mm
17:49 21.9 °F /  -5.6 °C 11.6 °F /  -11.3 °C 30.44in /  1030.7hPa West 4.0mph /  6.4km/h 10.0mph /  16.1km/h 64% 0.00in /  0mm
17:55 22.1 °F /  -5.5 °C 11.8 °F /  -11.2 °C 30.44in /  1030.7hPa West 4.0mph /  6.4km/h 10.0mph /  16.1km/h 64% 0.00in /  0mm
18:00 22.3 °F /  -5.4 °C 10.5 °F /  -11.9 °C 30.44in /  1030.7hPa WNW 4.0mph /  6.4km/h 8.0mph /  12.9km/h 60% 0.00in /  0mm
18:04 22.2 °F /  -5.4 °C 9.3 °F /  -12.6 °C 30.44in /  1030.7hPa WNW 5.0mph /  8km/h 9.0mph /  14.5km/h 57% 0.00in /  0mm
18:09 22.4 °F /  -5.3 °C 8.2 °F /  -13.2 °C 30.44in /  1030.7hPa West 2.0mph /  3.2km/h 10.0mph /  16.1km/h 54% 0.00in /  0mm
18:14 22.2 °F /  -5.4 °C 7.6 °F /  -13.6 °C 30.44in /  1030.7hPa WNW 4.0mph /  6.4km/h 11.0mph /  17.7km/h 53% 0.00in /  0mm
18:19 22.1 °F /  -5.5 °C 8.0 °F /  -13.3 °C 30.45in /  1031hPa West 8.0mph /  12.9km/h 11.0mph /  17.7km/h 54% 0.00in /  0mm
18:24 22.0 °F /  -5.6 °C 7.9 °F /  -13.4 °C 30.45in /  1031hPa West 6.0mph /  9.7km/h 11.0mph /  17.7km/h 54% 0.00in /  0mm
18:29 21.9 °F /  -5.6 °C 7.8 °F /  -13.4 °C 30.45in /  1031hPa West 6.0mph /  9.7km/h 10.0mph /  16.1km/h 54% 0.00in /  0mm
18:34 21.7 °F /  -5.7 °C 7.6 °F /  -13.6 °C 30.45in /  1031hPa WNW 4.0mph /  6.4km/h 10.0mph /  16.1km/h 54% 0.00in /  0mm
18:40 21.6 °F /  -5.8 °C 7.1 °F /  -13.8 °C 30.45in /  1031hPa WNW 5.0mph /  8km/h 11.0mph /  17.7km/h 53% 0.00in /  0mm
18:44 21.6 °F /  -5.8 °C 7.1 °F /  -13.8 °C 30.45in /  1031hPa WNW 5.0mph /  8km/h 12.0mph /  19.3km/h 53% 0.00in /  0mm
18:49 21.4 °F /  -5.9 °C 7.3 °F /  -13.7 °C 30.45in /  1031hPa WNW 5.0mph /  8km/h 12.0mph /  19.3km/h 54% 0.00in /  0mm
18:54 21.3 °F /  -5.9 °C 7.2 °F /  -13.8 °C 30.46in /  1031.4hPa WNW 5.0mph /  8km/h 12.0mph /  19.3km/h 54% 0.00in /  0mm
18:59 21.2 °F /  -6 °C 6.7 °F /  -14.1 °C 30.46in /  1031.4hPa WNW 6.0mph /  9.7km/h 11.0mph /  17.7km/h 53% 0.00in /  0mm
19:04 21.1 °F /  -6.1 °C 7.0 °F /  -13.9 °C 30.47in /  1031.7hPa WNW 6.0mph /  9.7km/h 9.0mph /  14.5km/h 54% 0.00in /  0mm
19:09 20.9 °F /  -6.2 °C 6.8 °F /  -14 °C 30.47in /  1031.7hPa West 2.0mph /  3.2km/h 9.0mph /  14.5km/h 54% 0.00in /  0mm
19:14 20.7 °F /  -6.3 °C 7.1 °F /  -13.8 °C 30.47in /  1031.7hPa WNW 5.0mph /  8km/h 11.0mph /  17.7km/h 55% 0.00in /  0mm
19:19 20.7 °F /  -6.3 °C 6.7 °F /  -14.1 °C 30.47in /  1031.7hPa WNW 5.0mph /  8km/h 11.0mph /  17.7km/h 54% 0.00in /  0mm
19:24 20.6 °F /  -6.3 °C 7.0 °F /  -13.9 °C 30.47in /  1031.7hPa WNW 5.0mph /  8km/h 11.0mph /  17.7km/h 55% 0.00in /  0mm
19:29 20.5 °F /  -6.4 °C 6.9 °F /  -13.9 °C 30.47in /  1031.7hPa West 3.0mph /  4.8km/h 7.0mph /  11.3km/h 55% 0.00in /  0mm
19:34 20.3 °F /  -6.5 °C 6.7 °F /  -14.1 °C 30.47in /  1031.7hPa NW 3.0mph /  4.8km/h 6.0mph /  9.7km/h 55% 0.00in /  0mm
19:39 20.2 °F /  -6.6 °C 6.6 °F /  -14.1 °C 30.48in /  1032.1hPa West 6.0mph /  9.7km/h 7.0mph /  11.3km/h 55% 0.00in /  0mm
19:44 20.3 °F /  -6.5 °C 6.7 °F /  -14.1 °C 30.48in /  1032.1hPa West 5.0mph /  8km/h 10.0mph /  16.1km/h 55% 0.00in /  0mm
19:49 20.4 °F /  -6.4 °C 6.8 °F /  -14 °C 30.48in /  1032.1hPa WNW 5.0mph /  8km/h 10.0mph /  16.1km/h 55% 0.00in /  0mm
19:54 20.4 °F /  -6.4 °C 6.8 °F /  -14 °C 30.48in /  1032.1hPa WNW 4.0mph /  6.4km/h 10.0mph /  16.1km/h 55% 0.00in /  0mm
19:59 20.3 °F /  -6.5 °C 6.7 °F /  -14.1 °C 30.48in /  1032.1hPa West 6.0mph /  9.7km/h 9.0mph /  14.5km/h 55% 0.00in /  0mm
20:04 20.1 °F /  -6.6 °C 6.9 °F /  -13.9 °C 30.48in /  1032.1hPa NW 3.0mph /  4.8km/h 6.0mph /  9.7km/h 56% 0.00in /  0mm
20:09 19.9 °F /  -6.7 °C 7.1 °F /  -13.8 °C 30.48in /  1032.1hPa WNW 2.0mph /  3.2km/h 6.0mph /  9.7km/h 57% 0.00in /  0mm
20:14 19.7 °F /  -6.8 °C 6.9 °F /  -13.9 °C 30.48in /  1032.1hPa WNW 4.0mph /  6.4km/h 4.0mph /  6.4km/h 57% 0.00in /  0mm
20:19 19.7 °F /  -6.8 °C 7.3 °F /  -13.7 °C 30.48in /  1032.1hPa NNW 2.0mph /  3.2km/h 7.0mph /  11.3km/h 58% 0.00in /  0mm
20:24 19.6 °F /  -6.9 °C 7.6 °F /  -13.6 °C 30.48in /  1032.1hPa WNW 3.0mph /  4.8km/h 7.0mph /  11.3km/h 59% 0.00in /  0mm
20:29 19.6 °F /  -6.9 °C 7.6 °F /  -13.6 °C 30.48in /  1032.1hPa NW 3.0mph /  4.8km/h 7.0mph /  11.3km/h 59% 0.00in /  0mm
20:34 19.6 °F /  -6.9 °C 7.6 °F /  -13.6 °C 30.48in /  1032.1hPa NW 3.0mph /  4.8km/h 7.0mph /  11.3km/h 59% 0.00in /  0mm
20:39 19.6 °F /  -6.9 °C 7.6 °F /  -13.6 °C 30.48in /  1032.1hPa NW 4.0mph /  6.4km/h 7.0mph /  11.3km/h 59% 0.00in /  0mm
20:44 19.5 °F /  -6.9 °C 7.5 °F /  -13.6 °C 30.48in /  1032.1hPa WNW 2.0mph /  3.2km/h 7.0mph /  11.3km/h 59% 0.00in /  0mm
20:50 19.3 °F /  -7.1 °C 7.3 °F /  -13.7 °C 30.48in /  1032.1hPa NW 3.0mph /  4.8km/h 4.0mph /  6.4km/h 59% 0.00in /  0mm
20:54 18.9 °F /  -7.3 °C 7.3 °F /  -13.7 °C 30.49in /  1032.4hPa WNW 2.0mph /  3.2km/h 5.0mph /  8km/h 60% 0.00in /  0mm
20:59 18.8 °F /  -7.3 °C 7.6 °F /  -13.6 °C 30.49in /  1032.4hPa WNW 2.0mph /  3.2km/h 5.0mph /  8km/h 61% 0.00in /  0mm
21:04 18.5 °F /  -7.5 °C 7.3 °F /  -13.7 °C 30.49in /  1032.4hPa Calm   3.0mph /  4.8km/h 61% 0.00in /  0mm
21:09 18.3 °F /  -7.6 °C 7.1 °F /  -13.8 °C 30.49in /  1032.4hPa Calm   3.0mph /  4.8km/h 61% 0.00in /  0mm
21:14 18.0 °F /  -7.8 °C 7.2 °F /  -13.8 °C 30.49in /  1032.4hPa WNW 2.0mph /  3.2km/h 2.0mph /  3.2km/h 62% 0.00in /  0mm
21:19 17.9 °F /  -7.8 °C 7.1 °F /  -13.8 °C 30.48in /  1032.1hPa NW 2.0mph /  3.2km/h 3.0mph /  4.8km/h 62% 0.00in /  0mm
21:24 18.0 °F /  -7.8 °C 7.2 °F /  -13.8 °C 30.48in /  1032.1hPa WNW 1.0mph /  1.6km/h 4.0mph /  6.4km/h 62% 0.00in /  0mm
21:29 18.1 °F /  -7.7 °C 6.9 °F /  -13.9 °C 30.48in /  1032.1hPa NW 2.0mph /  3.2km/h 5.0mph /  8km/h 61% 0.00in /  0mm
21:34 18.0 °F /  -7.8 °C 6.8 °F /  -14 °C 30.48in /  1032.1hPa NW 1.0mph /  1.6km/h 5.0mph /  8km/h 61% 0.00in /  0mm
21:39 17.6 °F /  -8 °C 6.4 °F /  -14.2 °C 30.48in /  1032.1hPa WNW 1.0mph /  1.6km/h 4.0mph /  6.4km/h 61% 0.00in /  0mm
21:44 17.6 °F /  -8 °C 6.4 °F /  -14.2 °C 30.48in /  1032.1hPa NW 1.0mph /  1.6km/h 5.0mph /  8km/h 61% 0.00in /  0mm
21:49 17.7 °F /  -7.9 °C 6.5 °F /  -14.2 °C 30.48in /  1032.1hPa NW 1.0mph /  1.6km/h 5.0mph /  8km/h 61% 0.00in /  0mm
21:54 17.4 °F /  -8.1 °C 6.6 °F /  -14.1 °C 30.48in /  1032.1hPa Calm   4.0mph /  6.4km/h 62% 0.00in /  0mm
21:59 17.5 °F /  -8.1 °C 6.3 °F /  -14.3 °C 30.48in /  1032.1hPa NW 1.0mph /  1.6km/h 4.0mph /  6.4km/h 61% 0.00in /  0mm
22:04 17.3 °F /  -8.2 °C 6.5 °F /  -14.2 °C 30.48in /  1032.1hPa WNW 1.0mph /  1.6km/h 4.0mph /  6.4km/h 62% 0.00in /  0mm
22:09 17.4 °F /  -8.1 °C 6.2 °F /  -14.3 °C 30.48in /  1032.1hPa WNW 2.0mph /  3.2km/h 5.0mph /  8km/h 61% 0.00in /  0mm
22:14 17.7 °F /  -7.9 °C 6.5 °F /  -14.2 °C 30.49in /  1032.4hPa WNW 1.0mph /  1.6km/h 5.0mph /  8km/h 61% 0.00in /  0mm
22:19 17.5 °F /  -8.1 °C 6.3 °F /  -14.3 °C 30.49in /  1032.4hPa NW 1.0mph /  1.6km/h 4.0mph /  6.4km/h 61% 0.00in /  0mm
22:24 17.3 °F /  -8.2 °C 6.1 °F /  -14.4 °C 30.49in /  1032.4hPa WNW 2.0mph /  3.2km/h 3.0mph /  4.8km/h 61% 0.00in /  0mm
22:29 17.2 °F /  -8.2 °C 6.4 °F /  -14.2 °C 30.49in /  1032.4hPa WNW 2.0mph /  3.2km/h 3.0mph /  4.8km/h 62% 0.00in /  0mm
22:34 17.3 °F /  -8.2 °C 6.1 °F /  -14.4 °C 30.49in /  1032.4hPa NW 2.0mph /  3.2km/h 4.0mph /  6.4km/h 61% 0.00in /  0mm
22:39 17.2 °F /  -8.2 °C 6.0 °F /  -14.4 °C 30.50in /  1032.7hPa NW 2.0mph /  3.2km/h 4.0mph /  6.4km/h 61% 0.00in /  0mm
22:44 16.9 °F /  -8.4 °C 5.8 °F /  -14.6 °C 30.50in /  1032.7hPa NW 1.0mph /  1.6km/h 3.0mph /  4.8km/h 61% 0.00in /  0mm
22:49 16.8 °F /  -8.4 °C 6.0 °F /  -14.4 °C 30.49in /  1032.4hPa NW 1.0mph /  1.6km/h 3.0mph /  4.8km/h 62% 0.00in /  0mm
22:54 16.6 °F /  -8.6 °C 5.8 °F /  -14.6 °C 30.49in /  1032.4hPa NW 1.0mph /  1.6km/h 3.0mph /  4.8km/h 62% 0.00in /  0mm
22:59 16.4 °F /  -8.7 °C 6.0 °F /  -14.4 °C 30.49in /  1032.4hPa Calm   4.0mph /  6.4km/h 63% 0.00in /  0mm
23:04 16.5 °F /  -8.6 °C 6.1 °F /  -14.4 °C 30.49in /  1032.4hPa Calm   2.0mph /  3.2km/h 63% 0.00in /  0mm
23:09 16.3 °F /  -8.7 °C 6.2 °F /  -14.3 °C 30.50in /  1032.7hPa WNW 1.0mph /  1.6km/h 3.0mph /  4.8km/h 64% 0.00in /  0mm
23:14 16.2 °F /  -8.8 °C 6.1 °F /  -14.4 °C 30.50in /  1032.7hPa NW 1.0mph /  1.6km/h 3.0mph /  4.8km/h 64% 0.00in /  0mm
23:19 15.8 °F /  -9 °C 6.1 °F /  -14.4 °C 30.50in /  1032.7hPa Calm   2.0mph /  3.2km/h 65% 0.00in /  0mm
23:24 15.6 °F /  -9.1 °C 6.3 °F /  -14.3 °C 30.50in /  1032.7hPa Calm   1.0mph /  1.6km/h 66% 0.00in /  0mm
23:29 15.1 °F /  -9.4 °C 5.8 °F /  -14.6 °C 30.49in /  1032.4hPa Calm     66% 0.00in /  0mm
23:34 14.8 °F /  -9.6 °C 6.1 °F /  -14.4 °C 30.49in /  1032.4hPa Calm     68% 0.00in /  0mm
23:39 14.7 °F /  -9.6 °C 6.0 °F /  -14.4 °C 30.49in /  1032.4hPa Calm     68% 0.00in /  0mm
23:44 14.4 °F /  -9.8 °C 6.1 °F /  -14.4 °C 30.49in /  1032.4hPa Calm     69% 0.00in /  0mm
23:49 14.1 °F /  -9.9 °C 6.1 °F /  -14.4 °C 30.49in /  1032.4hPa Calm     70% 0.00in /  0mm
23:54 14.0 °F /  -10 °C 6.0 °F /  -14.4 °C 30.49in /  1032.4hPa Calm   1.0mph /  1.6km/h 70% 0.00in /  0mm
23:59 14.2 °F /  -9.9 °C 6.5 °F /  -14.2 °C 30.49in /  1032.4hPa Calm   1.0mph /  1.6km/h 71% 0.00in /  0mm
Buffalo, New York, USA
Compliments of Weather Underground - 2.25 mb